MMPN/UPN METAR and TAF weather

Enter ICAO airport designator
Station Type Date Time Source
MMPN METAR 2022/01/26 19:40 UTC NOAA

MMPN 261940Z 19007KT 13SM SCT035TCU 22/12 A3017 RMK 8/200 HZY CI


Station Type Date Time Source
MMPN Decoded METAR 2022/01/26 19:40 UTC NOAA

Uruapan / Gen Rayon, Mexico (MMPN) 19-24N 102-02W
Jan 26, 2022 - 02:40 PM EST / 2022.01.26 1940 UTC
Wind: from the S (190 degrees) at 8 MPH (7 KT):0
Visibility: 13 mile(s):0
Sky conditions: partly cloudy
Weather: Towering cumulus clouds observed
Temperature: 71 F (22 C)
Dew Point: 53 F (12 C)
Relative Humidity: 53%
Pressure (altimeter): 30.17 in. Hg (1021 hPa)
ob: MMPN 261940Z 19007KT 13SM SCT035TCU 22/12 A3017 RMK 8/200 HZY CI
cycle: 19

Station Type Date Time Source
MMPN TAF 2022/01/26 18:24 UTC NOAA

TAF MMPN 261621Z 2618/2718 18005KT P6SM SCT030 SCT280
BECMG 2620/2621 18012KT SCT030 BKN280
FM270200 00000KT P6SM BKN280
BECMG 2712/2713 6SM HZ

Example: see airport list